Time;durP1;ratioP1;P1;durP2;ratioP2;P2;SDS_P1;SDS_P2;PMS_P1;PMS_P2;Temp;Humidity;BMP_temperature;BMP_pressure;BME280_temperature;BME280_humidity;BME280_pressure;Samples;Min_cycle;Max_cycle;Signal;HPM_P1;HPM_P2
2022/08/14 00:01:46;;;;;;;2.30;2.03;;;18.20;56.20;;;;;;5082231;28;20727;-82
2022/08/14 00:04:13;;;;;;;2.40;1.80;;;18.20;55.80;;;;;;5088611;28;20728;-82
2022/08/14 00:06:41;;;;;;;2.17;1.90;;;18.30;55.70;;;;;;5081190;28;21278;-80
2022/08/14 00:09:08;;;;;;;2.97;1.67;;;18.20;55.80;;;;;;5074122;28;21186;-81
2022/08/14 00:11:35;;;;;;;1.97;1.77;;;18.20;57.00;;;;;;5080850;28;20620;-81
2022/08/14 00:14:03;;;;;;;2.27;2.07;;;18.10;57.30;;;;;;5090470;28;20728;-80
2022/08/14 00:16:31;;;;;;;2.00;1.70;;;18.00;57.70;;;;;;5081904;28;20683;-81
2022/08/14 00:19:00;;;;;;;2.13;1.93;;;17.90;57.90;;;;;;5082997;28;20631;-82
2022/08/14 00:21:28;;;;;;;2.23;2.03;;;17.80;58.10;;;;;;5082565;28;20994;-81
2022/08/14 00:23:56;;;;;;;3.90;2.70;;;17.70;58.30;;;;;;5073018;28;21000;-82
2022/08/14 00:26:25;;;;;;;1.93;1.83;;;17.60;58.00;;;;;;5088691;28;20613;-82
2022/08/14 00:28:52;;;;;;;1.80;1.70;;;17.60;58.10;;;;;;5076350;28;20713;-81
2022/08/14 00:31:21;;;;;;;2.80;2.20;;;17.40;57.90;;;;;;5081013;28;20620;-81
2022/08/14 00:33:50;;;;;;;1.67;1.57;;;17.40;58.30;;;;;;5073029;28;20621;-81
2022/08/14 00:36:19;;;;;;;2.53;2.10;;;17.40;58.60;;;;;;5088795;28;20620;-81
2022/08/14 00:38:48;;;;;;;1.93;1.83;;;17.40;58.90;;;;;;5087635;28;20628;-81
2022/08/14 00:41:16;;;;;;;1.53;1.43;;;17.40;59.70;;;;;;5073859;28;21016;-81
2022/08/14 00:43:45;;;;;;;2.17;1.97;;;17.30;59.50;;;;;;5070454;28;20617;-81
2022/08/14 00:46:14;;;;;;;2.07;1.97;;;17.20;60.30;;;;;;5079870;28;20651;-78
2022/08/14 00:48:41;;;;;;;2.03;1.93;;;17.00;59.90;;;;;;5083416;28;20697;-81
2022/08/14 00:51:10;;;;;;;2.70;1.73;;;17.10;60.60;;;;;;5070394;28;20617;-82
2022/08/14 00:53:41;;;;;;;2.80;1.60;;;17.10;61.10;;;;;;5088464;28;20623;-81
2022/08/14 00:56:10;;;;;;;2.07;1.70;;;17.30;60.80;;;;;;5090933;28;21190;-81
2022/08/14 00:58:37;;;;;;;2.03;1.93;;;17.10;60.30;;;;;;5072101;28;21183;-80
2022/08/14 01:01:07;;;;;;;1.80;1.70;;;17.10;59.90;;;;;;5069731;28;20614;-81
2022/08/14 01:03:38;;;;;;;2.40;1.67;;;17.00;60.40;;;;;;5070842;28;20965;-81
2022/08/14 01:06:08;;;;;;;1.80;1.70;;;17.10;61.60;;;;;;5069629;28;20624;-82
2022/08/14 01:08:37;;;;;;;1.80;1.70;;;17.10;60.50;;;;;;5073147;28;20771;-81
2022/08/14 01:11:06;;;;;;;2.10;1.93;;;17.10;60.00;;;;;;5081355;28;21106;-81
2022/08/14 01:13:35;;;;;;;1.67;1.57;;;17.10;59.80;;;;;;5069490;28;21085;-82
2022/08/14 01:16:05;;;;;;;3.00;2.60;;;17.10;59.50;;;;;;5069675;28;20648;-80
2022/08/14 01:21:24;;;;;;;1.90;1.70;;;16.80;61.10;;;;;;5075387;28;20674;-82
2022/08/14 01:23:53;;;;;;;2.37;2.10;;;16.80;61.60;;;;;;5073718;28;21206;-81
2022/08/14 01:26:23;;;;;;;2.40;2.20;;;16.70;62.40;;;;;;5071193;28;21261;-82
2022/08/14 01:28:54;;;;;;;1.47;1.37;;;16.60;63.50;;;;;;5088123;28;20798;-81
2022/08/14 01:31:23;;;;;;;2.33;2.13;;;16.50;63.70;;;;;;5085424;28;20657;-82
2022/08/14 01:33:55;;;;;;;2.20;2.00;;;16.60;64.50;;;;;;5071607;28;20671;-82
2022/08/14 01:36:27;;;;;;;2.00;1.80;;;16.60;61.90;;;;;;5082213;28;20647;-81
2022/08/14 01:38:56;;;;;;;2.40;2.03;;;16.80;61.60;;;;;;5074453;28;20617;-81
2022/08/14 01:41:26;;;;;;;2.33;2.10;;;16.70;61.20;;;;;;5081255;28;20621;-81
2022/08/14 01:44:00;;;;;;;2.40;2.20;;;16.70;61.70;;;;;;5074483;28;20621;-79
2022/08/14 01:46:30;;;;;;;2.83;2.57;;;16.50;62.80;;;;;;5071032;28;20624;-81
2022/08/14 01:48:59;;;;;;;1.60;1.50;;;16.40;64.00;;;;;;5078907;28;20657;-82
2022/08/14 01:51:30;;;;;;;2.17;2.03;;;16.30;64.80;;;;;;5082970;28;20735;-82
2022/08/14 01:54:00;;;;;;;2.23;2.03;;;16.20;65.10;;;;;;5080094;28;20630;-81
2022/08/14 01:56:36;;;;;;;2.40;1.90;;;16.30;64.90;;;;;;5069150;28;20729;-82
2022/08/14 01:59:05;;;;;;;2.27;2.07;;;16.50;63.70;;;;;;5073061;28;21186;-82
2022/08/14 02:01:33;;;;;;;1.70;1.60;;;16.40;63.00;;;;;;5068943;28;20628;-81
2022/08/14 02:04:01;;;;;;;2.20;2.00;;;16.50;62.70;;;;;;5082297;28;20617;-81
2022/08/14 02:06:30;;;;;;;2.30;2.10;;;16.50;62.30;;;;;;5086017;28;20632;-82
2022/08/14 02:08:58;;;;;;;2.47;2.27;;;16.30;64.00;;;;;;5072616;28;21557;-81
2022/08/14 02:11:26;;;;;;;2.37;2.17;;;16.10;65.20;;;;;;5077537;28;21296;-82
2022/08/14 02:13:58;;;;;;;2.13;2.03;;;16.10;65.60;;;;;;5088501;28;20629;-81
2022/08/14 02:16:28;;;;;;;2.23;2.10;;;16.00;66.30;;;;;;5069642;28;20732;-81
2022/08/14 02:18:56;;;;;;;2.47;2.27;;;16.00;67.20;;;;;;5076625;28;20617;-81
2022/08/14 02:21:23;;;;;;;2.40;1.93;;;16.30;65.70;;;;;;5083474;28;20713;-82
2022/08/14 02:23:55;;;;;;;2.40;2.20;;;16.10;65.60;;;;;;5079876;28;20697;-82
2022/08/14 02:26:24;;;;;;;4.13;2.43;;;16.20;65.00;;;;;;5074238;28;20618;-82
2022/08/14 02:28:58;;;;;;;2.60;2.40;;;16.30;64.50;;;;;;5069485;28;20718;-82
2022/08/14 02:31:28;;;;;;;2.50;2.27;;;16.30;65.00;;;;;;5079492;28;20633;-84
2022/08/14 02:33:55;;;;;;;2.40;2.20;;;16.30;64.00;;;;;;5071594;28;21045;-81
2022/08/14 02:36:23;;;;;;;4.97;2.00;;;16.20;64.10;;;;;;5079132;28;20605;-82
2022/08/14 02:38:51;;;;;;;2.33;2.13;;;16.20;63.70;;;;;;5082754;28;20719;-82
2022/08/14 02:41:18;;;;;;;2.50;2.30;;;16.40;63.00;;;;;;5080638;28;20609;-81
2022/08/14 02:43:45;;;;;;;2.43;2.23;;;16.40;63.50;;;;;;5079813;28;21094;-82
2022/08/14 02:46:12;;;;;;;2.80;2.10;;;16.40;65.20;;;;;;5072234;28;20628;-81
2022/08/14 02:48:41;;;;;;;1.90;1.80;;;16.40;65.60;;;;;;5071956;28;21525;-81
2022/08/14 02:51:10;;;;;;;1.67;1.57;;;16.40;63.90;;;;;;5067492;28;20618;-83
2022/08/14 02:53:43;;;;;;;2.27;2.03;;;16.30;64.00;;;;;;5076915;28;20612;-80
2022/08/14 02:56:14;;;;;;;2.40;2.20;;;16.40;64.40;;;;;;5088072;28;20648;-82
2022/08/14 02:58:45;;;;;;;2.03;1.93;;;16.10;65.80;;;;;;5078745;28;20625;-82
2022/08/14 03:01:14;;;;;;;2.40;2.20;;;16.20;66.10;;;;;;5067619;28;20629;-82
2022/08/14 03:03:41;;;;;;;1.60;1.50;;;16.20;67.20;;;;;;5073875;28;20732;-82
2022/08/14 03:06:09;;;;;;;3.23;2.63;;;16.10;64.80;;;;;;5088370;28;20629;-81
2022/08/14 03:08:38;;;;;;;2.43;2.10;;;16.20;64.90;;;;;;5086273;28;20755;-82
2022/08/14 03:11:07;;;;;;;2.10;1.90;;;16.20;65.30;;;;;;5088209;28;20686;-80
2022/08/14 03:13:36;;;;;;;3.43;2.30;;;16.30;64.60;;;;;;5077586;28;21070;-81
2022/08/14 03:16:07;;;;;;;2.60;1.97;;;16.30;67.10;;;;;;5075276;28;20707;-81
2022/08/14 03:18:35;;;;;;;2.70;2.27;;;16.10;67.40;;;;;;5070257;28;20756;-81
2022/08/14 03:21:04;;;;;;;2.40;2.20;;;16.20;66.80;;;;;;5081814;28;20649;-82
2022/08/14 03:23:33;;;;;;;4.20;2.73;;;16.20;66.80;;;;;;5067202;28;20614;-82
2022/08/14 03:26:02;;;;;;;2.23;2.13;;;16.20;66.60;;;;;;5068042;28;20667;-81
2022/08/14 03:28:30;;;;;;;2.07;1.87;;;16.20;65.50;;;;;;5085534;28;20724;-82
2022/08/14 03:30:58;;;;;;;1.70;1.60;;;16.30;66.00;;;;;;5067766;28;20633;-80
2022/08/14 03:33:26;;;;;;;2.00;1.60;;;16.40;64.70;;;;;;5071609;28;20652;-82
2022/08/14 03:35:54;;;;;;;2.47;2.27;;;16.40;64.30;;;;;;5068080;28;20631;-82
2022/08/14 03:38:21;;;;;;;2.10;1.90;;;16.40;63.60;;;;;;5068646;28;21183;-81
2022/08/14 03:40:49;;;;;;;2.23;2.03;;;16.40;62.90;;;;;;5071164;28;20706;-81
2022/08/14 03:43:16;;;;;;;2.60;2.07;;;16.50;63.20;;;;;;5082917;28;21544;-82
2022/08/14 03:45:43;;;;;;;2.40;2.20;;;16.50;63.50;;;;;;5074852;28;20620;-81
2022/08/14 03:48:18;;;;;;;1.90;1.80;;;16.50;65.30;;;;;;5073226;28;20721;-82
2022/08/14 03:50:46;;;;;;;3.63;2.43;;;16.40;65.70;;;;;;5076951;28;21230;-81
2022/08/14 03:53:13;;;;;;;2.17;1.90;;;16.30;65.80;;;;;;5071786;28;20617;-81
2022/08/14 03:55:40;;;;;;;2.83;2.17;;;16.30;66.80;;;;;;5067034;28;20718;-82
2022/08/14 03:58:08;;;;;;;1.60;1.50;;;16.30;67.10;;;;;;5082074;28;20654;-81
2022/08/14 04:00:36;;;;;;;1.83;1.73;;;16.30;67.60;;;;;;5067661;28;20640;-81
2022/08/14 04:03:05;;;;;;;1.83;1.73;;;16.10;67.40;;;;;;5079853;28;20724;-81
2022/08/14 04:05:33;;;;;;;2.50;2.30;;;16.00;68.10;;;;;;5068298;28;20708;-81
2022/08/14 04:08:01;;;;;;;2.13;2.03;;;15.70;68.50;;;;;;5066942;28;20632;-81
2022/08/14 04:10:28;;;;;;;1.67;1.57;;;15.70;68.90;;;;;;5078769;28;20660;-81
2022/08/14 04:12:58;;;;;;;2.53;2.33;;;15.80;69.40;;;;;;5086477;28;20636;-81
2022/08/14 04:15:25;;;;;;;2.83;2.67;;;15.60;68.80;;;;;;5067327;28;21147;-81
2022/08/14 04:17:52;;;;;;;2.47;2.27;;;15.60;69.30;;;;;;5074522;28;20719;-81
2022/08/14 04:20:21;;;;;;;2.50;2.30;;;15.50;69.00;;;;;;5085507;28;20648;-81
2022/08/14 04:22:50;;;;;;;4.40;2.70;;;15.60;69.40;;;;;;5079515;28;20637;-81
2022/08/14 04:25:18;;;;;;;1.67;1.57;;;15.70;69.10;;;;;;5073691;28;20620;-81
2022/08/14 04:27:48;;;;;;;4.00;2.33;;;15.50;68.60;;;;;;5082438;28;20633;-82
2022/08/14 04:30:17;;;;;;;2.47;2.27;;;15.60;69.30;;;;;;5067939;28;20661;-80
2022/08/14 04:32:44;;;;;;;2.40;2.10;;;15.60;70.80;;;;;;5080936;28;20965;-81
2022/08/14 04:35:11;;;;;;;3.10;2.80;;;15.50;71.10;;;;;;5073255;28;20681;-79
2022/08/14 04:45:53;;;;;;;3.10;2.80;;;15.40;73.10;;;;;;5089106;28;21183;-82
2022/08/14 04:48:20;;;;;;;1.97;1.83;;;15.40;73.00;;;;;;5077107;28;21052;-82
2022/08/14 04:50:50;;;;;;;2.27;2.17;;;15.50;73.50;;;;;;5084004;28;21272;-82
2022/08/14 04:53:20;;;;;;;2.30;2.10;;;15.60;74.00;;;;;;5088270;28;21037;-82
2022/08/14 04:55:49;;;;;;;2.30;2.10;;;15.50;73.30;;;;;;5070597;28;20633;-81
2022/08/14 04:58:17;;;;;;;2.60;1.67;;;15.70;73.90;;;;;;5075465;28;20621;-81
2022/08/14 05:00:45;;;;;;;3.13;2.57;;;15.80;74.00;;;;;;5069918;28;20622;-82
2022/08/14 05:03:12;;;;;;;2.87;2.10;;;15.80;73.40;;;;;;5087439;28;20670;-81
2022/08/14 05:05:39;;;;;;;2.10;1.90;;;15.90;73.60;;;;;;5091058;28;20616;-80
2022/08/14 05:08:11;;;;;;;3.90;2.53;;;16.10;73.00;;;;;;5080393;28;20621;-82
2022/08/14 05:10:40;;;;;;;2.17;1.97;;;16.30;73.30;;;;;;5082050;28;21065;-79
2022/08/14 05:13:09;;;;;;;2.87;2.03;;;16.30;73.30;;;;;;5079862;28;20693;-82
2022/08/14 05:15:40;;;;;;;2.70;2.50;;;16.50;73.70;;;;;;5079709;28;20648;-82
2022/08/14 05:18:11;;;;;;;4.53;2.90;;;16.40;73.70;;;;;;5089399;28;20635;-81
2022/08/14 05:20:41;;;;;;;2.33;2.13;;;16.60;72.70;;;;;;5088458;28;20611;-82
2022/08/14 05:23:08;;;;;;;2.17;2.07;;;16.90;68.80;;;;;;5071174;28;20636;-83
2022/08/14 05:25:34;;;;;;;2.03;1.83;;;16.90;69.10;;;;;;5085910;28;20661;-83
2022/08/14 05:28:17;;;;;;;2.00;1.90;;;17.10;66.30;;;;;;5083764;28;20634;-83
2022/08/14 05:30:45;;;;;;;2.70;2.20;;;17.30;65.30;;;;;;5087670;28;20670;-81
2022/08/14 05:33:13;;;;;;;1.97;1.87;;;17.40;65.10;;;;;;5082049;28;20703;-81
2022/08/14 05:35:40;;;;;;;2.13;2.03;;;17.70;64.20;;;;;;5076789;28;20636;-81
2022/08/14 05:38:08;;;;;;;2.70;2.37;;;17.60;64.40;;;;;;5070703;28;20728;-82
2022/08/14 05:40:35;;;;;;;3.53;2.63;;;17.60;64.00;;;;;;5071504;28;20618;-82
2022/08/14 05:43:02;;;;;;;2.23;2.03;;;17.50;63.70;;;;;;5087948;28;20640;-82
2022/08/14 05:45:31;;;;;;;2.03;1.93;;;17.80;64.10;;;;;;5087246;28;21218;-82
2022/08/14 05:47:57;;;;;;;2.50;2.30;;;17.80;64.40;;;;;;5089719;28;20666;-81
2022/08/14 05:50:24;;;;;;;1.67;1.57;;;17.90;63.10;;;;;;5068902;28;20669;-81
2022/08/14 05:52:53;;;;;;;1.80;1.70;;;17.90;63.70;;;;;;5075287;28;20974;-81
2022/08/14 05:55:21;;;;;;;2.57;2.37;;;18.00;63.00;;;;;;5079231;28;21064;-82
2022/08/14 05:57:51;;;;;;;1.87;1.63;;;18.10;63.20;;;;;;5084981;28;20620;-82
2022/08/14 06:00:19;;;;;;;1.90;1.80;;;18.20;62.90;;;;;;5083033;28;20654;-80
2022/08/14 06:02:48;;;;;;;2.37;2.00;;;18.30;64.10;;;;;;5080368;28;20668;-82
2022/08/14 06:05:16;;;;;;;2.17;1.97;;;18.50;63.50;;;;;;5087066;28;20617;-80
2022/08/14 06:07:43;;;;;;;2.30;2.10;;;18.50;61.70;;;;;;5085563;28;20617;-82
2022/08/14 06:10:11;;;;;;;2.70;2.30;;;18.60;62.20;;;;;;5080843;28;21253;-82
2022/08/14 06:12:38;;;;;;;2.80;2.27;;;18.60;61.80;;;;;;5075184;28;20679;-81
2022/08/14 06:15:07;;;;;;;2.93;2.70;;;18.50;62.50;;;;;;5085571;28;20627;-81
2022/08/14 06:17:43;;;;;;;2.80;2.43;;;18.60;63.20;;;;;;5089029;28;20704;-82
2022/08/14 06:20:13;;;;;;;1.77;1.67;;;18.70;60.40;;;;;;5084708;28;20667;-83
2022/08/14 06:22:41;;;;;;;2.80;2.23;;;18.80;60.70;;;;;;5086759;28;20616;-82
2022/08/14 06:25:09;;;;;;;2.53;2.33;;;18.90;60.20;;;;;;5085026;28;21323;-82
2022/08/14 06:27:37;;;;;;;2.50;2.30;;;19.00;60.60;;;;;;5084953;28;20646;-81
2022/08/14 06:30:06;;;;;;;2.87;2.67;;;19.30;59.90;;;;;;5071397;28;20664;-82
2022/08/14 06:32:33;;;;;;;2.00;1.90;;;19.30;59.00;;;;;;5079216;28;20733;-82
2022/08/14 06:35:00;;;;;;;2.97;2.50;;;19.40;59.40;;;;;;5081440;28;20638;-82
2022/08/14 06:37:28;;;;;;;2.50;2.13;;;19.60;59.40;;;;;;5088116;28;20705;-82
2022/08/14 06:39:55;;;;;;;2.20;2.10;;;19.80;59.60;;;;;;5086931;28;21026;-81
2022/08/14 06:42:23;;;;;;;2.30;2.20;;;;;;;;;;5077028;28;21035;-84
2022/08/14 06:44:50;;;;;;;2.37;2.17;;;19.80;59.00;;;;;;5074280;28;21187;-82
2022/08/14 06:47:17;;;;;;;2.10;1.90;;;19.90;58.10;;;;;;5084416;28;20681;-81
2022/08/14 06:49:43;;;;;;;2.70;2.50;;;20.00;58.20;;;;;;5079507;28;20649;-80
2022/08/14 06:52:10;;;;;;;3.10;2.90;;;20.00;58.40;;;;;;5077907;28;20625;-81
2022/08/14 06:54:42;;;;;;;3.63;2.60;;;20.20;58.20;;;;;;5070852;28;20613;-83
2022/08/14 06:57:09;;;;;;;2.30;2.10;;;20.30;57.70;;;;;;5067470;28;20687;-81
2022/08/14 06:59:35;;;;;;;1.80;1.70;;;20.40;58.00;;;;;;5068047;28;20633;-82
2022/08/14 07:07:37;;;;;;;1.97;1.87;;;21.00;55.20;;;;;;5068332;28;20614;-80
2022/08/14 07:10:05;;;;;;;2.73;2.30;;;20.90;55.00;;;;;;5083774;28;20679;-82
2022/08/14 07:12:32;;;;;;;2.07;1.90;;;21.10;54.20;;;;;;5083390;28;20636;-83
2022/08/14 07:14:59;;;;;;;2.50;1.90;;;21.10;54.40;;;;;;5087093;28;20670;-82
2022/08/14 07:17:28;;;;;;;2.67;2.47;;;21.30;54.60;;;;;;5072084;28;20653;-81
2022/08/14 07:19:55;;;;;;;2.53;2.33;;;21.50;54.70;;;;;;5067484;28;20630;-84
2022/08/14 07:22:22;;;;;;;1.83;1.73;;;21.70;53.00;;;;;;5073101;28;20637;-82
2022/08/14 07:24:49;;;;;;;1.63;1.53;;;21.60;53.30;;;;;;5079605;28;20622;-82
2022/08/14 07:27:17;;;;;;;2.20;2.07;;;21.80;52.70;;;;;;5071991;28;20621;-83
2022/08/14 07:29:44;;;;;;;3.00;2.43;;;21.90;52.80;;;;;;5078877;28;20729;-84
2022/08/14 07:32:11;;;;;;;1.97;1.73;;;22.10;52.60;;;;;;5067892;28;20620;-83
2022/08/14 07:34:38;;;;;;;1.97;1.87;;;22.00;53.30;;;;;;5072091;28;20671;-83
2022/08/14 07:37:05;;;;;;;1.97;1.87;;;22.20;53.30;;;;;;5067583;28;21073;-84
2022/08/14 07:39:32;;;;;;;3.00;1.50;;;22.20;52.80;;;;;;5070761;28;20697;-84
2022/08/14 07:41:59;;;;;;;1.67;1.57;;;22.20;52.10;;;;;;5073909;28;20716;-83
2022/08/14 07:44:28;;;;;;;2.50;2.30;;;22.30;52.30;;;;;;5083194;28;20617;-83
2022/08/14 07:46:55;;;;;;;2.60;2.40;;;22.50;51.90;;;;;;5087058;28;20686;-82
2022/08/14 07:49:23;;;;;;;1.97;1.87;;;22.50;52.30;;;;;;5086301;28;21059;-83
2022/08/14 07:51:50;;;;;;;2.70;2.00;;;23.00;52.00;;;;;;5076281;28;20769;-81
2022/08/14 07:54:17;;;;;;;2.13;1.80;;;22.80;52.00;;;;;;5083426;28;21233;-82
2022/08/14 07:56:44;;;;;;;4.13;2.23;;;23.00;51.80;;;;;;5074144;28;20651;-83
2022/08/14 07:59:11;;;;;;;2.20;2.00;;;23.20;52.00;;;;;;5067990;28;20909;-83
2022/08/14 08:01:40;;;;;;;3.55;2.10;;;23.30;51.20;;;;;;5066210;28;20842;-80
2022/08/14 08:04:08;;;;;;;2.30;2.20;;;23.40;50.20;;;;;;5085089;28;20206;-83
2022/08/14 08:06:37;;;;;;;2.00;1.90;;;23.60;50.00;;;;;;5076753;28;20707;-82
2022/08/14 08:09:05;;;;;;;2.20;1.53;;;23.70;50.50;;;;;;5076379;28;20640;-82
2022/08/14 08:11:34;;;;;;;2.47;1.90;;;23.90;50.40;;;;;;5083487;28;20668;-82
2022/08/14 08:14:05;;;;;;;1.90;1.80;;;23.90;49.80;;;;;;5083723;28;20660;-82
2022/08/14 08:16:35;;;;;;;2.37;2.17;;;24.00;48.70;;;;;;5081663;28;20633;-83
2022/08/14 08:19:04;;;;;;;3.23;2.93;;;24.10;48.30;;;;;;5086395;28;20624;-82
2022/08/14 08:21:31;;;;;;;3.17;2.00;;;24.30;48.70;;;;;;5070607;28;20640;-84
2022/08/14 08:23:57;;;;;;;2.10;1.77;;;24.50;48.20;;;;;;5070779;28;20621;-83
2022/08/14 08:26:30;;;;;;;1.90;1.60;;;24.80;47.30;;;;;;5069896;28;20650;-84
2022/08/14 08:28:58;;;;;;;1.80;1.70;;;24.70;47.60;;;;;;5070817;28;20621;-84
2022/08/14 08:31:25;;;;;;;2.00;1.90;;;24.80;47.00;;;;;;5070696;28;20664;-84
2022/08/14 08:33:53;;;;;;;1.87;1.77;;;24.80;47.30;;;;;;5069817;28;20693;-82
2022/08/14 08:36:21;;;;;;;2.30;2.10;;;24.90;47.10;;;;;;5070058;28;20657;-82
2022/08/14 08:38:49;;;;;;;1.80;1.70;;;25.00;47.20;;;;;;5070293;28;21150;-82
2022/08/14 08:41:16;;;;;;;2.40;2.20;;;25.20;45.90;;;;;;5069697;28;21091;-82
2022/08/14 08:43:43;;;;;;;2.20;2.00;;;;;;;;;;5069604;28;20629;-83
2022/08/14 08:46:13;;;;;;;2.03;1.93;;;25.40;46.70;;;;;;5070000;28;20728;-84
2022/08/14 08:48:47;;;;;;;2.27;2.07;;;25.50;46.30;;;;;;5069881;28;21171;-83
2022/08/14 08:51:24;;;;;;;1.90;1.80;;;25.70;45.50;;;;;;5070388;28;20679;-84
2022/08/14 08:54:02;;;;;;;2.13;2.03;;;25.70;45.70;;;;;;5069284;28;20660;-84
2022/08/14 08:56:37;;;;;;;2.30;2.10;;;25.80;45.40;;;;;;5069888;28;20637;-84
2022/08/14 08:59:15;;;;;;;2.63;2.43;;;26.00;45.30;;;;;;5070052;28;20625;-85
2022/08/14 09:01:46;;;;;;;2.00;1.67;;;26.00;45.20;;;;;;5069213;28;20672;-82
2022/08/14 09:04:13;;;;;;;2.57;2.37;;;26.00;44.90;;;;;;5077867;28;20630;-83
2022/08/14 09:06:45;;;;;;;2.20;2.10;;;26.50;44.80;;;;;;5088685;28;20669;-84
2022/08/14 09:09:20;;;;;;;1.80;1.70;;;26.40;44.80;;;;;;5088681;28;20659;-83
2022/08/14 09:11:47;;;;;;;2.40;2.20;;;26.40;44.70;;;;;;5071849;28;20655;-85
2022/08/14 09:14:14;;;;;;;2.37;2.27;;;26.50;44.10;;;;;;5082664;28;20621;-83
2022/08/14 09:16:41;;;;;;;2.50;2.30;;;26.80;44.00;;;;;;5070047;28;20708;-84
2022/08/14 09:19:10;;;;;;;2.50;2.30;;;26.60;44.20;;;;;;5071382;28;20629;-82
2022/08/14 09:21:38;;;;;;;1.83;1.73;;;26.70;43.60;;;;;;5069797;28;20724;-85
2022/08/14 09:24:07;;;;;;;2.23;2.10;;;26.70;44.50;;;;;;5069691;28;20736;-82
2022/08/14 09:26:36;;;;;;;2.10;1.93;;;26.90;44.40;;;;;;5075755;28;20641;-83
2022/08/14 09:29:04;;;;;;;1.73;1.63;;;26.90;43.10;;;;;;5076450;28;21552;-83
2022/08/14 09:31:33;;;;;;;2.70;2.23;;;26.90;43.20;;;;;;5080367;28;21223;-84
2022/08/14 09:34:10;;;;;;;2.50;2.30;;;26.90;43.30;;;;;;5077098;28;21206;-84
2022/08/14 09:37:02;;;;;;;3.23;2.90;;;27.00;43.10;;;;;;5074141;28;20654;-85
2022/08/14 09:39:46;;;;;;;2.53;2.33;;;27.10;42.90;;;;;;5079717;28;20694;-82
2022/08/14 09:42:33;;;;;;;2.10;1.90;;;27.30;43.50;;;;;;5073245;28;20694;-83
2022/08/14 09:45:12;;;;;;;1.90;1.80;;;27.30;42.90;;;;;;5085038;28;20682;-84
2022/08/14 09:47:49;;;;;;;3.40;2.40;;;27.30;42.70;;;;;;5074189;28;20625;-84
2022/08/14 09:50:26;;;;;;;2.00;1.90;;;27.30;43.00;;;;;;5081181;28;20659;-81
2022/08/14 09:52:57;;;;;;;2.57;2.37;;;27.50;43.40;;;;;;5072825;28;21266;-83
2022/08/14 09:55:26;;;;;;;2.33;2.10;;;27.60;43.30;;;;;;5069488;28;20683;-83
2022/08/14 09:58:10;;;;;;;2.13;2.03;;;27.60;42.70;;;;;;5070061;28;20641;-83
2022/08/14 10:00:44;;;;;;;2.20;2.10;;;27.90;42.10;;;;;;5069949;28;20632;-83
2022/08/14 10:03:11;;;;;;;2.07;1.93;;;27.90;42.30;;;;;;5070848;28;20640;-82
2022/08/14 10:05:39;;;;;;;2.57;2.47;;;27.90;43.00;;;;;;5070155;28;20633;-84
2022/08/14 10:08:19;;;;;;;2.10;2.00;;;28.10;43.30;;;;;;5072267;28;20632;-84
2022/08/14 10:10:48;;;;;;;1.97;1.87;;;28.20;41.70;;;;;;5088118;28;20755;-85
2022/08/14 10:13:26;;;;;;;1.93;1.83;;;28.20;42.10;;;;;;5085275;28;20629;-83
2022/08/14 10:15:59;;;;;;;2.57;2.37;;;28.30;41.80;;;;;;5068834;28;20648;-84
2022/08/14 10:18:27;;;;;;;3.80;2.97;;;28.50;42.00;;;;;;5068033;28;21168;-82
2022/08/14 10:20:57;;;;;;;2.60;2.40;;;28.50;41.80;;;;;;5067924;28;20671;-84
2022/08/14 10:23:26;;;;;;;2.40;2.10;;;28.70;41.70;;;;;;5066560;28;21216;-80
2022/08/14 10:26:03;;;;;;;2.50;2.30;;;28.70;42.10;;;;;;5067511;28;20629;-85
2022/08/14 10:28:41;;;;;;;2.43;2.27;;;28.90;40.20;;;;;;5067754;28;20674;-85
2022/08/14 10:31:18;;;;;;;2.43;2.23;;;28.90;41.20;;;;;;5068093;28;20689;-85
2022/08/14 10:33:59;;;;;;;2.47;2.27;;;29.00;39.50;;;;;;5066496;28;20682;-82
2022/08/14 10:36:31;;;;;;;1.90;1.80;;;28.80;39.70;;;;;;5068534;28;20712;-84
2022/08/14 10:38:59;;;;;;;2.30;2.10;;;29.00;39.60;;;;;;5068003;28;20639;-81
2022/08/14 10:41:38;;;;;;;2.73;2.53;;;29.00;39.70;;;;;;5070768;28;20694;-84
2022/08/14 10:44:09;;;;;;;2.20;2.00;;;29.50;38.80;;;;;;5074998;28;21212;-85
2022/08/14 10:46:45;;;;;;;2.07;1.87;;;29.50;39.10;;;;;;5082112;28;20629;-82
2022/08/14 10:49:21;;;;;;;2.53;2.33;;;29.50;38.90;;;;;;5079706;28;20714;-83
2022/08/14 10:52:04;;;;;;;2.70;2.50;;;29.50;38.30;;;;;;5086452;28;20664;-84
2022/08/14 10:54:40;;;;;;;2.50;2.30;;;29.40;38.50;;;;;;5067097;28;20636;-82
2022/08/14 10:57:20;;;;;;;2.17;1.97;;;29.60;38.60;;;;;;5081468;28;20664;-86
2022/08/14 10:59:50;;;;;;;2.70;2.50;;;29.60;38.20;;;;;;5072829;28;21160;-84
2022/08/14 11:02:27;;;;;;;2.43;2.23;;;29.90;38.50;;;;;;5081943;28;20736;-81
2022/08/14 11:05:04;;;;;;;2.60;2.40;;;30.10;37.60;;;;;;5066584;28;20660;-84
2022/08/14 11:07:31;;;;;;;2.30;2.20;;;;;;;;;;5067543;28;21269;-83
2022/08/14 11:10:00;;;;;;;2.33;2.13;;;29.80;36.90;;;;;;5083519;28;20728;-86
2022/08/14 11:12:47;;;;;;;2.23;2.10;;;29.80;38.40;;;;;;5076468;28;20775;-86
2022/08/14 11:15:16;;;;;;;2.37;2.17;;;30.10;38.30;;;;;;5085198;28;20659;-83
2022/08/14 11:17:45;;;;;;;2.53;2.33;;;30.50;37.40;;;;;;5087956;28;20623;-83
2022/08/14 11:20:13;;;;;;;2.47;2.27;;;30.80;37.30;;;;;;5085155;28;20834;-85
2022/08/14 11:22:41;;;;;;;2.97;2.77;;;30.90;37.80;;;;;;5085199;28;20648;-82
2022/08/14 11:25:13;;;;;;;2.63;2.43;;;31.30;37.40;;;;;;5077755;28;20644;-85
2022/08/14 11:27:44;;;;;;;2.50;2.27;;;31.30;37.60;;;;;;5079341;28;20630;-85
2022/08/14 11:30:14;;;;;;;2.60;2.40;;;31.50;35.90;;;;;;5067368;28;20660;-85
2022/08/14 11:32:47;;;;;;;2.37;2.17;;;31.60;35.80;;;;;;5077485;28;20669;-86
2022/08/14 11:35:16;;;;;;;2.80;2.60;;;31.60;35.50;;;;;;5078340;28;20644;-83
2022/08/14 11:37:52;;;;;;;2.50;2.30;;;31.90;35.40;;;;;;5083977;28;20707;-83
2022/08/14 11:40:19;;;;;;;2.53;2.10;;;32.10;34.70;;;;;;5069032;28;20717;-83
2022/08/14 11:42:49;;;;;;;2.43;2.23;;;32.10;34.80;;;;;;5066459;28;20724;-86
2022/08/14 11:45:17;;;;;;;2.50;2.30;;;32.50;34.30;;;;;;5084248;28;20716;-84
2022/08/14 11:47:44;;;;;;;2.67;2.47;;;33.00;33.40;;;;;;5084657;28;20744;-82
2022/08/14 11:50:13;;;;;;;2.33;2.23;;;33.10;33.50;;;;;;5085139;28;20662;-83
2022/08/14 11:52:40;;;;;;;2.63;2.43;;;33.50;33.30;;;;;;5081416;28;20664;-85
2022/08/14 11:55:11;;;;;;;2.10;2.00;;;33.60;33.70;;;;;;5088252;28;21225;-85
2022/08/14 11:57:39;;;;;;;2.63;2.43;;;34.70;32.40;;;;;;5090317;28;20632;-85
2022/08/14 12:00:11;;;;;;;2.20;2.10;;;34.80;32.70;;;;;;5071306;28;20653;-83
2022/08/14 12:02:48;;;;;;;1.97;1.87;;;35.80;31.60;;;;;;5071328;28;20978;-82
2022/08/14 12:05:15;;;;;;;2.07;1.97;;;35.90;31.80;;;;;;5070483;28;21440;-83
2022/08/14 12:07:48;;;;;;;2.30;2.20;;;36.60;31.30;;;;;;5071272;28;20682;-84
2022/08/14 12:10:18;;;;;;;3.13;2.93;;;;;;;;;;5075675;28;20717;-84
2022/08/14 12:12:45;;;;;;;2.03;1.93;;;38.50;29.30;;;;;;5090977;28;20647;-85
2022/08/14 12:15:13;;;;;;;2.47;2.28;;;38.90;28.80;;;;;;5074604;28;20294;-87
2022/08/14 12:17:47;;;;;;;2.20;2.10;;;39.50;28.40;;;;;;5085777;28;20198;-83
2022/08/14 12:20:14;;;;;;;2.30;2.20;;;39.80;28.20;;;;;;5081843;28;20271;-86
2022/08/14 12:22:43;;;;;;;2.70;2.50;;;40.00;28.30;;;;;;5086513;28;20200;-84
2022/08/14 12:25:13;;;;;;;2.03;1.92;;;40.50;28.30;;;;;;5078153;28;20559;-86
2022/08/14 12:27:43;;;;;;;2.30;2.10;;;40.70;27.30;;;;;;5071396;28;20236;-86
2022/08/14 12:30:14;;;;;;;2.38;2.28;;;41.10;27.20;;;;;;5085595;28;20285;-86
2022/08/14 12:32:43;;;;;;;2.40;2.20;;;41.10;27.40;;;;;;5072659;28;20232;-85
2022/08/14 12:35:10;;;;;;;2.10;2.00;;;41.10;27.20;;;;;;5080841;28;20216;-86
2022/08/14 12:37:38;;;;;;;2.00;1.90;;;41.00;27.40;;;;;;5070268;28;20238;-84
2022/08/14 12:40:10;;;;;;;2.38;2.28;;;41.50;26.90;;;;;;5078929;28;20237;-84
2022/08/14 12:42:38;;;;;;;1.95;1.85;;;41.60;26.80;;;;;;5083843;28;20575;-85
2022/08/14 12:45:06;;;;;;;2.05;1.95;;;41.80;26.10;;;;;;5090693;28;20218;-85
2022/08/14 12:47:36;;;;;;;1.83;1.73;;;42.00;25.80;;;;;;5077617;28;20277;-86
2022/08/14 12:50:03;;;;;;;1.80;1.70;;;42.30;25.80;;;;;;5079909;28;20723;-84
2022/08/14 12:52:32;;;;;;;1.67;1.67;;;41.30;25.80;;;;;;5078117;28;20236;-83
2022/08/14 12:55:00;;;;;;;1.33;1.33;;;41.90;26.00;;;;;;5080980;28;20273;-82
2022/08/14 12:57:38;;;;;;;1.50;1.40;;;42.50;24.70;;;;;;5087499;28;20218;-83
2022/08/14 13:00:12;;;;;;;1.25;1.10;;;42.30;24.60;;;;;;5075086;28;20200;-85
2022/08/14 13:02:49;;;;;;;1.25;1.25;;;42.50;24.80;;;;;;5069434;28;20277;-82
2022/08/14 13:05:16;;;;;;;1.50;1.40;;;42.70;24.70;;;;;;5070441;28;20194;-84
2022/08/14 13:07:43;;;;;;;1.25;1.25;;;43.20;24.30;;;;;;5070041;28;20669;-85
2022/08/14 13:10:13;;;;;;;1.85;1.75;;;42.80;24.40;;;;;;5074738;28;20230;-82
2022/08/14 13:12:40;;;;;;;1.13;1.13;;;42.80;25.00;;;;;;5077645;28;20218;-84
2022/08/14 13:15:10;;;;;;;1.60;1.50;;;43.00;24.30;;;;;;5069953;28;20786;-84
2022/08/14 13:17:42;;;;;;;1.90;1.80;;;43.10;24.20;;;;;;5074379;28;20282;-83